createdAt,value
2019-05-03T00:00:31.648Z,52.9
2019-05-03T00:01:27.627Z,53.4
2019-05-03T00:02:32.554Z,53.1
2019-05-03T00:03:31.984Z,53.6
2019-05-03T00:04:31.614Z,53.4
2019-05-03T00:05:38.969Z,53.6
2019-05-03T00:06:38.137Z,53.6
2019-05-03T00:07:35.114Z,53.1
2019-05-03T00:08:35.355Z,53.8
2019-05-03T00:09:34.608Z,53.3
2019-05-03T00:10:32.545Z,53.9
2019-05-03T00:11:30.335Z,53.4
2019-05-03T00:12:30.031Z,53.4
2019-05-03T00:13:28.928Z,53.6
2019-05-03T00:14:28.699Z,53.5
2019-05-03T00:15:24.768Z,54.1
2019-05-03T00:16:56.384Z,53.8
2019-05-03T00:17:55.064Z,53.8
2019-05-03T00:19:03.470Z,54.1
2019-05-03T00:20:33.444Z,54.1
2019-05-03T00:21:29.114Z,53.9
2019-05-03T00:22:32.363Z,54.1
2019-05-03T00:23:57.670Z,54.2
2019-05-03T00:25:05.977Z,54.1
2019-05-03T00:25:08.124Z,54.1
2019-05-03T00:26:02.857Z,54.2
2019-05-03T00:27:02.009Z,54.1
2019-05-03T00:28:01.849Z,54.3
2019-05-03T00:28:59.663Z,54.2
2019-05-03T00:29:57.936Z,54.1
2019-05-03T00:31:02.424Z,54.2
2019-05-03T00:32:03.773Z,54.4
2019-05-03T00:33:04.855Z,54.2
2019-05-03T00:34:07.461Z,54.1
2019-05-03T00:35:19.454Z,54.4
2019-05-03T00:36:19.171Z,54.2
2019-05-03T00:37:19.293Z,54.3
2019-05-03T00:38:16.332Z,54.2
2019-05-03T00:39:14.057Z,54.2
2019-05-03T00:40:12.239Z,54.3
2019-05-03T00:41:14.786Z,54.3
2019-05-03T00:42:24.657Z,54.4
2019-05-03T00:43:23.996Z,54.6
2019-05-03T00:44:43.937Z,54.7
2019-05-03T00:45:42.223Z,54.6
2019-05-03T00:47:22.200Z,54.9
2019-05-03T00:48:21.928Z,54.5
2019-05-03T00:49:32.067Z,54.5
2019-05-03T00:50:28.802Z,54.5
2019-05-03T00:51:27.801Z,54.6
2019-05-03T00:52:28.415Z,54.6
2019-05-03T00:53:27.064Z,54.6
2019-05-03T00:54:25.441Z,54.5
2019-05-03T00:55:32.947Z,54.5
2019-05-03T00:56:52.218Z,54.5
2019-05-03T00:57:46.486Z,54.6
2019-05-03T00:58:45.137Z,54.6
2019-05-03T00:59:43.848Z,54.7
2019-05-03T01:00:41.782Z,54.8
2019-05-03T01:01:42.770Z,54.7
2019-05-03T01:04:35.329Z,54.8
2019-05-03T01:05:29.177Z,54.7
2019-05-03T01:06:26.465Z,54.8
2019-05-03T01:07:23.421Z,54.8
2019-05-03T01:08:25.213Z,54.6
2019-05-03T01:09:24.130Z,54.7
2019-05-03T01:10:23.185Z,54.8
2019-05-03T01:11:18.874Z,54.8
2019-05-03T01:12:17.435Z,54.7
2019-05-03T01:13:14.635Z,55
2019-05-03T01:14:12.001Z,54.7
2019-05-03T01:15:12.336Z,54.8
2019-05-03T01:16:13.797Z,54.8
2019-05-03T01:17:11.782Z,55
2019-05-03T01:18:12.398Z,54.7
2019-05-03T01:19:12.102Z,54.8
2019-05-03T01:20:22.517Z,54.8
2019-05-03T01:21:28.031Z,54.9
2019-05-03T01:22:32.243Z,54.8
2019-05-03T01:22:32.562Z,54.8
2019-05-03T01:23:28.878Z,54.9
2019-05-03T01:24:26.492Z,54.9
2019-05-03T01:25:32.361Z,55
2019-05-03T01:25:35.128Z,55
2019-05-03T01:26:55.259Z,54.9
2019-05-03T01:27:48.147Z,54.9
2019-05-03T01:28:52.287Z,55
2019-05-03T01:29:49.195Z,54.9
2019-05-03T01:30:46.991Z,55
2019-05-03T01:32:11.573Z,55.5
2019-05-03T01:33:05.529Z,55.6
2019-05-03T01:34:09.390Z,55.7
2019-05-03T01:35:09.062Z,55.6
2019-05-03T01:36:13.197Z,55.6
2019-05-03T01:37:11.977Z,55.5
2019-05-03T01:38:14.641Z,55.5
2019-05-03T01:39:12.751Z,55.5
2019-05-03T01:40:17.826Z,55.5
2019-05-03T01:41:17.731Z,55.5
2019-05-03T01:42:22.483Z,55.4
2019-05-03T01:43:28.147Z,55.5
2019-05-03T01:44:26.834Z,55.5
2019-05-03T01:45:24.522Z,55.6
2019-05-03T01:46:27.230Z,55.5
2019-05-03T01:47:27.147Z,55.5
2019-05-03T01:48:25.233Z,55.5
2019-05-03T01:49:52.042Z,55.6
2019-05-03T01:50:42.553Z,55.5
2019-05-03T01:51:39.682Z,55.5
2019-05-03T01:52:43.841Z,55.7
2019-05-03T01:53:43.932Z,55.7
2019-05-03T01:54:52.308Z,55.6
2019-05-03T01:55:58.075Z,55.6
2019-05-03T01:56:58.868Z,55.6
2019-05-03T01:57:53.724Z,55.7
2019-05-03T01:59:01.850Z,55.6
2019-05-03T02:00:06.783Z,55.8
2019-05-03T02:01:12.550Z,55.9
2019-05-03T02:02:08.541Z,56
2019-05-03T02:03:07.616Z,55.8
2019-05-03T02:04:07.587Z,55.8
2019-05-03T02:05:03.229Z,55.8
2019-05-03T02:06:02.441Z,55.8
2019-05-03T02:07:02.301Z,55.6
2019-05-03T02:08:02.110Z,55.7
2019-05-03T02:09:16.421Z,55.8
2019-05-03T02:10:22.649Z,56.1
2019-05-03T02:11:22.215Z,55.8
2019-05-03T02:12:24.393Z,55.8
2019-05-03T02:13:22.930Z,55.8
2019-05-03T02:14:23.201Z,55.7
2019-05-03T02:15:22.125Z,55.8
2019-05-03T02:16:30.199Z,55.9
2019-05-03T02:17:34.405Z,55.7
2019-05-03T02:18:37.043Z,55.8
2019-05-03T02:19:38.288Z,55.7
2019-05-03T02:20:37.245Z,55.8
2019-05-03T02:21:43.050Z,55.8
2019-05-03T02:22:46.864Z,55.8
2019-05-03T02:23:44.504Z,55.9
2019-05-03T02:24:46.042Z,55.8
2019-05-03T02:25:55.666Z,55.9
2019-05-03T02:25:56.084Z,55.9
2019-05-03T02:25:58.302Z,55.9
2019-05-03T02:26:46.015Z,55.9
2019-05-03T02:27:45.067Z,56
2019-05-03T02:28:42.786Z,56
2019-05-03T02:29:45.680Z,55.9
2019-05-03T02:30:45.235Z,56
2019-05-03T02:31:46.412Z,56
2019-05-03T02:32:43.973Z,55.9
2019-05-03T02:33:53.363Z,55.9
2019-05-03T02:34:53.402Z,56
2019-05-03T02:35:48.911Z,56.1
2019-05-03T02:36:47.095Z,56.1
2019-05-03T02:37:53.000Z,56.1
2019-05-03T02:38:48.082Z,56.1
2019-05-03T02:39:46.255Z,56.1
2019-05-03T02:40:44.432Z,56.2
2019-05-03T02:41:54.451Z,56.3
2019-05-03T02:41:59.728Z,56.3
2019-05-03T02:42:06.266Z,56.3
2019-05-03T02:42:48.142Z,56.2
2019-05-03T02:44:08.026Z,56.1
2019-05-03T02:45:01.957Z,56.2
2019-05-03T02:46:00.717Z,56.2
2019-05-03T02:46:58.912Z,56.3
2019-05-03T02:48:05.852Z,56.1
2019-05-03T02:48:08.432Z,56.1
2019-05-03T02:49:01.883Z,56.3
2019-05-03T02:50:05.850Z,56.3
2019-05-03T02:51:07.586Z,56.3
2019-05-03T02:52:01.980Z,56.3
2019-05-03T02:53:09.543Z,56.3
2019-05-03T02:54:07.469Z,56.3
2019-05-03T02:55:07.241Z,56.4
2019-05-03T02:56:20.908Z,56.4
2019-05-03T02:56:21.591Z,56.4
2019-05-03T02:56:22.269Z,56.4
2019-05-03T02:57:08.918Z,56.4
2019-05-03T02:58:06.499Z,56.4
2019-05-03T02:59:06.170Z,56.4
2019-05-03T03:00:16.331Z,56.4
2019-05-03T03:01:12.441Z,56.4
2019-05-03T03:02:11.920Z,56.7
2019-05-03T03:03:16.685Z,56.5
2019-05-03T03:04:15.682Z,56.6
2019-05-03T03:05:16.584Z,56.7
2019-05-03T03:06:11.877Z,56.4
2019-05-03T03:07:10.103Z,56.4
2019-05-03T03:08:11.952Z,56.4
2019-05-03T03:09:16.525Z,56.5
2019-05-03T03:10:23.222Z,56.5
2019-05-03T03:11:26.100Z,56.4
2019-05-03T03:12:21.820Z,56.5
2019-05-03T03:13:25.401Z,56.5
2019-05-03T03:14:25.719Z,56.6
2019-05-03T03:15:25.702Z,56.6
2019-05-03T03:16:25.045Z,56.5
2019-05-03T03:17:25.329Z,56.5
2019-05-03T03:18:21.422Z,56.6
2019-05-03T03:19:20.769Z,56.5
2019-05-03T03:20:25.358Z,56.6
2019-05-03T03:21:22.429Z,56.5
2019-05-03T03:22:21.065Z,56.6
2019-05-03T03:23:40.456Z,56.5
2019-05-03T03:24:39.243Z,56.6
2019-05-03T03:25:41.862Z,56.7
2019-05-03T03:26:46.809Z,56.5
2019-05-03T03:27:41.803Z,56.6
2019-05-03T03:28:42.981Z,56.5
2019-05-03T03:29:45.888Z,56.5
2019-05-03T03:30:41.989Z,56.6
2019-05-03T03:31:41.309Z,56.8
2019-05-03T03:32:39.075Z,56.7
2019-05-03T03:33:40.114Z,56.7
2019-05-03T03:34:38.846Z,56.7
2019-05-03T03:35:38.352Z,56.7
2019-05-03T03:36:54.473Z,56.7
2019-05-03T03:36:58.835Z,56.7
2019-05-03T03:36:59.263Z,56.7
2019-05-03T03:37:37.673Z,56.8
2019-05-03T03:38:40.332Z,56.7
2019-05-03T03:39:37.777Z,56.7
2019-05-03T03:40:38.008Z,56.6
2019-05-03T03:41:35.512Z,56.7
2019-05-03T03:42:39.497Z,56.6
2019-05-03T03:43:35.753Z,56.7
2019-05-03T03:44:36.269Z,56.7
2019-05-03T03:45:36.062Z,57.2
2019-05-03T03:46:35.792Z,57.1
2019-05-03T03:47:46.465Z,57
2019-05-03T03:48:42.768Z,57
2019-05-03T03:49:47.230Z,57
2019-05-03T03:50:52.263Z,57.1
2019-05-03T03:51:51.929Z,57.1
2019-05-03T03:52:50.345Z,57.2
2019-05-03T03:53:49.069Z,57.1
2019-05-03T03:54:50.518Z,57
2019-05-03T03:55:46.785Z,57.1
2019-05-03T03:56:56.024Z,57.1
2019-05-03T03:56:59.419Z,57.1
2019-05-03T03:57:03.264Z,57.1
2019-05-03T03:58:21.269Z,56.9
2019-05-03T03:58:22.707Z,56.9
2019-05-03T03:59:08.612Z,57.1
2019-05-03T04:00:06.976Z,57
2019-05-03T04:01:06.883Z,57
2019-05-03T04:02:06.445Z,57.2
2019-05-03T04:03:05.912Z,56.9
2019-05-03T04:04:07.118Z,57.1
2019-05-03T04:05:05.563Z,57.1
2019-05-03T04:06:02.657Z,57
2019-05-03T04:07:01.664Z,56.9
2019-05-03T04:07:59.961Z,57
2019-05-03T04:08:57.046Z,57.2
2019-05-03T04:09:56.221Z,57.3
2019-05-03T04:11:06.303Z,57.2
2019-05-03T04:12:02.345Z,57.5
2019-05-03T04:13:01.308Z,57.5
2019-05-03T04:14:05.627Z,57.2
2019-05-03T04:15:05.499Z,57.2
2019-05-03T04:16:05.564Z,57.8
2019-05-03T04:17:02.355Z,57.4
2019-05-03T04:18:08.975Z,57.1
2019-05-03T04:19:06.764Z,57.2
2019-05-03T04:20:06.437Z,57.3
2019-05-03T04:21:06.694Z,57.5
2019-05-03T04:22:01.102Z,57.5
2019-05-03T04:22:59.967Z,57.4
2019-05-03T04:23:57.974Z,57.3
2019-05-03T04:24:57.428Z,57.2
2019-05-03T04:25:57.453Z,57
2019-05-03T04:27:13.796Z,57.1
2019-05-03T04:27:15.592Z,57.1
2019-05-03T04:27:18.667Z,57.1
2019-05-03T04:27:59.975Z,57.2
2019-05-03T04:29:00.162Z,57.1
2019-05-03T04:29:55.751Z,57.1
2019-05-03T04:30:55.224Z,57.1
2019-05-03T04:31:56.530Z,57.2
2019-05-03T04:31:58.694Z,57.2
2019-05-03T04:32:56.427Z,57.1
2019-05-03T04:33:52.683Z,57.1
2019-05-03T04:34:56.168Z,57.1
2019-05-03T04:35:56.312Z,57.2
2019-05-03T04:36:58.110Z,57.3
2019-05-03T04:38:08.396Z,57.3
2019-05-03T04:39:05.505Z,57.1
2019-05-03T04:40:07.183Z,57.2
2019-05-03T04:41:05.902Z,57.2
2019-05-03T04:42:01.853Z,57.2
2019-05-03T04:43:26.601Z,57.4
2019-05-03T04:44:26.900Z,57.2
2019-05-03T04:45:29.982Z,57.3
2019-05-03T04:46:27.066Z,57.2
2019-05-03T04:47:26.555Z,57.2
2019-05-03T04:48:47.898Z,57.3
2019-05-03T04:49:51.003Z,57.2
2019-05-03T04:50:55.341Z,57.2
2019-05-03T04:51:56.061Z,57.3
2019-05-03T04:52:51.350Z,57.3
2019-05-03T04:53:50.774Z,57.4
2019-05-03T04:54:47.243Z,57.2
2019-05-03T04:55:47.255Z,57.3
2019-05-03T04:56:52.290Z,57.2
2019-05-03T04:57:56.236Z,57.3
2019-05-03T04:58:59.937Z,57.2
2019-05-03T04:59:56.056Z,57.3
2019-05-03T05:00:55.382Z,57.3
2019-05-03T05:01:51.912Z,57.2
2019-05-03T05:02:51.706Z,57.3
2019-05-03T05:03:58.453Z,57.4
2019-05-03T05:06:17.353Z,57.2
2019-05-03T05:07:15.825Z,57.4
2019-05-03T05:07:20.575Z,57.4
2019-05-03T05:08:46.218Z,57.3
2019-05-03T05:09:45.642Z,57.4
2019-05-03T05:10:46.991Z,57.4
2019-05-03T05:11:49.426Z,57.4
2019-05-03T05:12:45.832Z,57.4
2019-05-03T05:13:45.574Z,57.4
2019-05-03T05:14:49.495Z,57.4
2019-05-03T05:15:48.221Z,57.3
2019-05-03T05:16:49.847Z,57.5
2019-05-03T05:17:47.232Z,57.5
2019-05-03T05:18:46.531Z,57.6
2019-05-03T05:19:47.412Z,57.6
2019-05-03T05:20:45.434Z,57.7
2019-05-03T05:21:44.918Z,57.7
2019-05-03T05:22:46.241Z,57.7
2019-05-03T05:23:46.165Z,57.6
2019-05-03T05:24:44.993Z,57.5
2019-05-03T05:25:42.285Z,57.6
2019-05-03T05:26:28.041Z,57.5
2019-05-03T05:27:27.073Z,57.5
2019-05-03T05:28:26.795Z,57.6
2019-05-03T05:29:27.219Z,57.5
2019-05-03T05:30:25.237Z,57.5
2019-05-03T05:31:22.315Z,57.5
2019-05-03T05:32:22.130Z,57.8
2019-05-03T05:33:44.654Z,57.7
2019-05-03T05:34:38.911Z,57.8
2019-05-03T05:35:37.864Z,57.7
2019-05-03T05:36:37.256Z,57.9
2019-05-03T05:37:42.085Z,57.9
2019-05-03T05:38:45.136Z,57.8
2019-05-03T05:39:44.961Z,57.8
2019-05-03T05:40:45.102Z,57.8
2019-05-03T05:41:40.518Z,57.9
2019-05-03T05:42:42.596Z,57.9
2019-05-03T05:43:54.959Z,58
2019-05-03T05:44:52.194Z,58.2
2019-05-03T05:45:48.784Z,58.1
2019-05-03T05:46:54.295Z,58.1
2019-05-03T05:47:55.194Z,58.5
2019-05-03T05:48:52.652Z,56.6
2019-05-03T05:49:54.592Z,55.4
2019-05-03T05:50:55.307Z,55.5
2019-05-03T05:51:55.740Z,55.6
2019-05-03T05:52:57.208Z,55.6
2019-05-03T05:53:57.297Z,55.9
2019-05-03T05:54:56.041Z,56
2019-05-03T05:55:55.046Z,55.8
2019-05-03T05:56:55.146Z,55.6
2019-05-03T05:58:03.017Z,55.5
2019-05-03T05:58:05.014Z,55.5
2019-05-03T05:58:05.405Z,55.5
2019-05-03T05:58:51.041Z,55.1
2019-05-03T05:59:51.989Z,55
2019-05-03T06:00:52.473Z,55.1
2019-05-03T06:01:51.703Z,55
2019-05-03T06:02:56.229Z,55
2019-05-03T06:03:55.086Z,55.4
2019-05-03T06:04:54.401Z,55
2019-05-03T06:05:55.221Z,54.3
2019-05-03T06:06:56.803Z,54.4
2019-05-03T06:07:58.647Z,54.7
2019-05-03T06:08:59.072Z,54.8
2019-05-03T06:09:58.626Z,54.8
2019-05-03T06:10:56.823Z,54.9
2019-05-03T06:11:55.386Z,54.7
2019-05-03T06:13:04.932Z,54.8
2019-05-03T06:14:02.489Z,54.6
2019-05-03T06:15:01.640Z,54.1
2019-05-03T06:16:05.255Z,54.2
2019-05-03T06:17:02.095Z,54.8
2019-05-03T06:18:10.449Z,54.2
2019-05-03T06:19:14.609Z,54.6
2019-05-03T06:20:15.628Z,54.6
2019-05-03T06:21:14.844Z,54.4
2019-05-03T06:22:12.674Z,54.2
2019-05-03T06:23:12.227Z,54.3
2019-05-03T06:24:35.017Z,54.9
2019-05-03T06:25:32.779Z,54.6
2019-05-03T06:26:31.796Z,54.2
2019-05-03T06:27:34.603Z,54.5
2019-05-03T06:28:37.742Z,54.5
2019-05-03T06:29:42.427Z,54.4
2019-05-03T06:30:39.945Z,54
2019-05-03T06:31:38.126Z,53.6
2019-05-03T06:32:35.833Z,53.6
2019-05-03T06:33:34.653Z,53.3
2019-05-03T06:34:35.421Z,53.6
2019-05-03T06:35:35.137Z,51.9
2019-05-03T06:36:38.622Z,52.7
2019-05-03T06:37:42.581Z,53.9
2019-05-03T06:38:42.173Z,54.2
2019-05-03T06:39:38.151Z,54.3
2019-05-03T06:40:35.456Z,50.9
2019-05-03T06:41:46.616Z,50.4
2019-05-03T06:42:54.612Z,50.2
2019-05-03T06:42:55.634Z,50.2
2019-05-03T06:43:08.451Z,50.2
2019-05-03T06:43:48.937Z,51.3
2019-05-03T06:44:54.717Z,50.9
2019-05-03T06:45:51.641Z,50.2
2019-05-03T06:46:49.706Z,51.9
2019-05-03T06:47:49.870Z,51
2019-05-03T06:48:50.301Z,51
2019-05-03T06:49:48.574Z,51.1
2019-05-03T06:50:49.712Z,51
2019-05-03T06:51:54.599Z,51
2019-05-03T06:52:52.027Z,48
2019-05-03T06:53:52.263Z,47.6
2019-05-03T06:54:51.284Z,46.5
2019-05-03T06:55:52.547Z,47.2
2019-05-03T06:56:55.610Z,47.6
2019-05-03T06:58:00.265Z,47.3
2019-05-03T06:58:57.792Z,46
2019-05-03T06:59:59.571Z,44.9
2019-05-03T07:00:56.863Z,44.8
2019-05-03T07:01:55.258Z,45.1
2019-05-03T07:02:51.685Z,46.6
2019-05-03T07:03:48.547Z,44.6
2019-05-03T07:04:48.746Z,46.6
2019-05-03T08:32:47.471Z,42.7
2019-05-03T08:33:35.423Z,42.2
2019-05-03T08:34:31.145Z,42.6
2019-05-03T08:35:28.786Z,42.1
2019-05-03T08:36:26.327Z,42.5
2019-05-03T08:37:27.775Z,42.1
2019-05-03T08:38:22.551Z,41.7
2019-05-03T08:39:20.095Z,41.7
2019-05-03T08:40:17.969Z,41.2
2019-05-03T08:41:16.018Z,41.4
2019-05-03T08:42:16.928Z,40.3
2019-05-03T08:43:15.731Z,39.6
2019-05-03T08:44:14.561Z,39.1
2019-05-03T08:45:14.817Z,38.8
2019-05-03T08:46:11.773Z,38.2
2019-05-03T08:47:10.576Z,37.9
2019-05-03T08:48:08.283Z,37.6
2019-05-03T08:49:06.187Z,37.3
2019-05-03T08:50:10.361Z,37
2019-05-03T08:51:08.015Z,36.9
2019-05-03T08:52:05.720Z,36.7
2019-05-03T08:53:05.132Z,36.6
2019-05-03T08:54:05.781Z,36.4
2019-05-03T08:55:05.240Z,36.4
2019-05-03T08:56:10.473Z,36.5
2019-05-03T08:57:09.057Z,36.5
2019-05-03T08:58:06.849Z,36.6
2019-05-03T08:59:04.805Z,36.9
2019-05-03T09:00:02.401Z,37.1
2019-05-03T09:01:05.493Z,37.2
2019-05-03T09:02:13.633Z,37.6
2019-05-03T09:02:13.856Z,37.6
2019-05-03T09:02:14.326Z,37.6
2019-05-03T09:03:05.219Z,37.9
2019-05-03T09:04:02.544Z,38.1
2019-05-03T09:05:05.249Z,38.2
2019-05-03T09:06:04.520Z,38.4
2019-05-03T09:07:00.424Z,38.7
2019-05-03T09:07:59.432Z,39
2019-05-03T09:09:01.082Z,39.1
2019-05-03T09:10:00.574Z,39.4
2019-05-03T09:10:58.483Z,39.5
2019-05-03T09:11:57.669Z,38.9
2019-05-03T09:13:20.511Z,39.9
2019-05-03T09:14:14.994Z,40.3
2019-05-03T09:15:11.522Z,39.9
2019-05-03T09:16:10.179Z,40.5
2019-05-03T09:17:09.039Z,40.7
2019-05-03T09:19:20.295Z,40.7
2019-05-03T09:20:16.161Z,40.8
2019-05-03T09:21:14.938Z,40.9
2019-05-03T09:22:14.634Z,40.7
2019-05-03T09:23:15.080Z,41
2019-05-03T09:24:16.590Z,40.7
2019-05-03T09:25:15.438Z,40.7
2019-05-03T09:26:15.145Z,40.7
2019-05-03T09:27:17.889Z,40.6
2019-05-03T09:28:20.584Z,40.5
2019-05-03T09:29:18.540Z,40.6
2019-05-03T09:30:18.118Z,40.4
2019-05-03T09:31:19.216Z,40.1
2019-05-03T09:32:31.437Z,40.1
2019-05-03T09:33:30.726Z,39.9
2019-05-03T09:34:57.972Z,39.4
2019-05-03T09:35:55.113Z,40.6
2019-05-03T09:36:49.435Z,40.2
2019-05-03T09:38:28.651Z,41.1
2019-05-03T09:39:24.492Z,40.8
2019-05-03T09:39:28.541Z,40.8
2019-05-03T09:40:19.795Z,40.6
2019-05-03T09:41:20.088Z,41.1
2019-05-03T09:42:16.905Z,41.2
2019-05-03T09:43:18.119Z,41.3
2019-05-03T09:44:18.793Z,40.5
2019-05-03T09:45:19.508Z,40.3
2019-05-03T09:46:16.281Z,40.1
2019-05-03T09:47:15.816Z,40.4
2019-05-03T09:48:19.140Z,39.9
2019-05-03T09:51:02.604Z,39.9
2019-05-03T09:52:27.509Z,40.1
2019-05-03T09:53:57.999Z,40
2019-05-03T09:54:45.377Z,39.8
2019-05-03T09:55:44.721Z,39.7
2019-05-03T09:56:53.377Z,39.6
2019-05-03T09:56:57.625Z,39.6
2019-05-03T09:56:58.401Z,39.6
2019-05-03T09:57:48.740Z,39.7
2019-05-03T09:58:49.709Z,40.2
2019-05-03T09:59:56.611Z,39.9
2019-05-03T09:59:57.085Z,39.9
2019-05-03T10:00:00.139Z,39.9
2019-05-03T10:00:46.485Z,39.8
2019-05-03T10:01:45.608Z,40
2019-05-03T10:02:41.190Z,39.9
2019-05-03T10:03:38.856Z,40.1
2019-05-03T10:04:36.970Z,40
2019-05-03T10:06:15.385Z,40.6
2019-05-03T10:07:15.361Z,40.2
2019-05-03T10:08:16.472Z,39.9
2019-05-03T10:09:15.511Z,40.4
2019-05-03T10:10:15.977Z,40.2
2019-05-03T10:11:55.138Z,40.9
2019-05-03T10:12:50.299Z,40.8
2019-05-03T10:13:51.165Z,40.6
2019-05-03T10:14:49.401Z,41.1
2019-05-03T10:15:45.455Z,40.5
2019-05-03T10:16:45.907Z,40.7
2019-05-03T10:17:45.786Z,40.7
2019-05-03T10:18:45.675Z,41.2
2019-05-03T10:19:45.666Z,41.4
2019-05-03T10:20:44.692Z,40.7
2019-05-03T10:21:37.918Z,41.4
2019-05-03T10:22:41.881Z,41.3
2019-05-03T10:23:42.381Z,40.5
2019-05-03T10:24:37.328Z,40.5
2019-05-03T10:25:40.356Z,40.7
2019-05-03T10:26:56.063Z,40.4
2019-05-03T10:27:51.223Z,40.8
2019-05-03T10:28:57.921Z,40.5
2019-05-03T10:29:55.955Z,40.8
2019-05-03T10:30:12.940Z,40.8
2019-05-03T10:30:57.261Z,40.6
2019-05-03T10:32:26.096Z,40.6
2019-05-03T10:33:26.835Z,40.1
2019-05-03T10:34:25.767Z,40.6
2019-05-03T10:35:55.451Z,40.6
2019-05-03T10:36:56.904Z,40.7
2019-05-03T10:37:54.966Z,40.8
2019-05-03T10:38:55.205Z,40.7
2019-05-03T10:39:51.961Z,40.9
2019-05-03T10:41:20.952Z,41.1
2019-05-03T10:42:14.753Z,41.2
2019-05-03T10:43:12.730Z,40.7
2019-05-03T10:44:11.498Z,40.6
2019-05-03T10:45:12.595Z,41.1
2019-05-03T10:46:09.926Z,40.9
2019-05-03T10:47:12.111Z,40.8
2019-05-03T10:48:16.832Z,40.7
2019-05-03T10:49:56.842Z,41.4
2019-05-03T10:50:40.649Z,40.7
2019-05-03T10:51:38.238Z,41.3
2019-05-03T10:52:38.367Z,41.1
2019-05-03T10:53:37.063Z,40.7
2019-05-03T10:54:40.445Z,41
2019-05-03T10:56:27.007Z,41.3
2019-05-03T10:57:21.622Z,41.2
2019-05-03T10:58:20.886Z,40.6
2019-05-03T10:59:19.176Z,40.9
2019-05-03T11:00:41.812Z,41.2
2019-05-03T11:00:42.470Z,41.2
2019-05-03T11:00:49.660Z,41.2
2019-05-03T11:01:16.101Z,40.9
2019-05-03T11:02:14.538Z,41.3
2019-05-03T11:03:16.102Z,41
2019-05-03T11:04:50.707Z,40.9
2019-05-03T11:05:34.882Z,41
2019-05-03T11:06:30.158Z,40.6
2019-05-03T11:07:29.918Z,40.8
2019-05-03T11:09:05.473Z,40.5
2019-05-03T11:09:08.231Z,40.5
2019-05-03T11:09:15.243Z,40.5
2019-05-03T11:09:55.138Z,40.8
2019-05-03T11:09:59.015Z,40.8
2019-05-03T11:10:55.030Z,40.9
2019-05-03T11:11:51.901Z,40.8
2019-05-03T11:12:55.309Z,40.8
2019-05-03T11:13:50.812Z,40.9
2019-05-03T11:14:51.415Z,40.9
2019-05-03T11:15:45.959Z,40.8
2019-05-03T11:16:46.039Z,40.5
2019-05-03T11:17:42.306Z,40.9
2019-05-03T11:18:40.100Z,40.9
2019-05-03T11:19:39.612Z,41.1
2019-05-03T11:20:37.159Z,41
2019-05-03T11:21:47.340Z,41
2019-05-03T11:22:45.311Z,40.6
2019-05-03T11:23:45.980Z,40.9
2019-05-03T11:24:45.499Z,40.9
2019-05-03T11:25:45.562Z,40.8
2019-05-03T11:26:40.241Z,40.8
2019-05-03T11:27:41.580Z,40.5
2019-05-03T11:28:44.743Z,40.9
2019-05-03T11:29:41.599Z,40.9
2019-05-03T11:30:53.470Z,40.5
2019-05-03T11:30:55.346Z,40.5
2019-05-03T11:30:59.091Z,40.5
2019-05-03T11:31:48.348Z,40.8
2019-05-03T11:32:39.198Z,40.9
2019-05-03T11:34:11.144Z,40.9
2019-05-03T11:35:05.332Z,40.8
2019-05-03T11:36:00.686Z,41.1
2019-05-03T11:36:59.777Z,41.3
2019-05-03T11:38:02.380Z,40.9
2019-05-03T11:39:25.684Z,40.7
2019-05-03T11:40:25.549Z,40.7
2019-05-03T11:41:31.999Z,40.9
2019-05-03T11:41:32.747Z,40.9
2019-05-03T11:41:35.820Z,40.9
2019-05-03T11:42:26.891Z,41.2
2019-05-03T11:43:24.773Z,40.7
2019-05-03T11:44:21.843Z,41
2019-05-03T11:45:24.630Z,40.7
2019-05-03T11:46:24.859Z,40.2
2019-05-03T11:46:28.616Z,40.2
2019-05-03T11:47:20.903Z,41.2
2019-05-03T11:48:24.847Z,40.8
2019-05-03T11:49:18.374Z,40.5
2019-05-03T11:50:22.280Z,40.9
2019-05-03T11:51:16.317Z,40.8
2019-05-03T11:52:17.939Z,40.4
2019-05-03T11:53:14.544Z,40.7
2019-05-03T11:54:12.121Z,40.4
2019-05-03T11:55:12.344Z,40.5
2019-05-03T11:56:12.244Z,40.4
2019-05-03T11:57:09.438Z,40.4
2019-05-03T11:58:07.132Z,40.3
2019-05-03T11:59:12.222Z,40.4
2019-05-03T12:00:09.835Z,40.4
2019-05-03T12:01:15.963Z,40.3
2019-05-03T12:01:19.041Z,40.3
2019-05-03T12:01:20.432Z,40.3
2019-05-03T12:02:05.440Z,40.9
2019-05-03T12:03:05.007Z,40.7
2019-05-03T12:04:15.368Z,40.5
2019-05-03T12:05:10.914Z,40.3
2019-05-03T12:06:10.079Z,40.2
2019-05-03T12:07:08.764Z,39.6
2019-05-03T12:08:07.209Z,40.2
2019-05-03T12:09:08.042Z,40.1
2019-05-03T12:10:16.395Z,40.7
2019-05-03T12:10:26.727Z,40.7
2019-05-03T12:10:32.527Z,40.7
2019-05-03T12:11:06.230Z,40.7
2019-05-03T12:12:07.859Z,40.1
2019-05-03T12:13:08.417Z,40.7
2019-05-03T12:14:06.971Z,40.5
2019-05-03T12:15:05.195Z,40
2019-05-03T12:16:05.498Z,39.7
2019-05-03T12:16:17.397Z,39.7
2019-05-03T12:16:20.394Z,39.7
2019-05-03T12:17:17.195Z,40.5
2019-05-03T12:17:18.374Z,40.5
2019-05-03T12:17:22.515Z,40.5
2019-05-03T12:18:01.743Z,40.3
2019-05-03T12:18:59.010Z,40
2019-05-03T12:19:58.689Z,40
2019-05-03T12:20:56.997Z,40
2019-05-03T12:21:54.421Z,40.5
2019-05-03T12:22:53.535Z,39.9
2019-05-03T12:24:16.161Z,39.9
2019-05-03T12:25:12.637Z,39.9
2019-05-03T12:26:17.347Z,40.3
2019-05-03T12:27:20.438Z,39.8
2019-05-03T12:28:21.391Z,39.8
2019-05-03T12:29:19.391Z,39.7
2019-05-03T12:30:24.906Z,39.7
2019-05-03T12:30:27.809Z,39.7
2019-05-03T12:31:33.530Z,39.7
2019-05-03T12:31:36.939Z,39.7
2019-05-03T12:31:38.032Z,39.7
2019-05-03T12:32:50.399Z,39.6
2019-05-03T12:33:50.931Z,39.6
2019-05-03T12:34:49.926Z,39.7
2019-05-03T12:35:48.880Z,39.7
2019-05-03T12:36:46.066Z,39.6
2019-05-03T12:37:46.215Z,39.7
2019-05-03T12:38:47.440Z,39.5
2019-05-03T12:39:44.860Z,39.5
2019-05-03T12:40:45.555Z,39.4
2019-05-03T12:41:41.776Z,39.5
2019-05-03T12:42:41.815Z,39.4
2019-05-03T12:43:36.510Z,39.4
2019-05-03T12:44:35.490Z,39.3
2019-05-03T12:45:50.484Z,39.3
2019-05-03T12:46:53.582Z,39.2
2019-05-03T12:47:52.462Z,39.3
2019-05-03T12:48:52.788Z,39.2
2019-05-03T12:49:58.807Z,39.3
2019-05-03T12:50:58.376Z,39.1
2019-05-03T12:51:55.794Z,39.3
2019-05-03T12:52:55.570Z,39.3
2019-05-03T12:54:24.543Z,39.2
2019-05-03T12:55:18.468Z,39.5
2019-05-03T12:56:23.744Z,39.4
2019-05-03T12:56:31.006Z,39.4
2019-05-03T12:56:32.780Z,39.4
2019-05-03T12:57:56.998Z,39.2
2019-05-03T12:58:55.133Z,39.2
2019-05-03T12:59:50.316Z,39.2
2019-05-03T13:00:48.633Z,39.6
2019-05-03T13:01:45.439Z,39.1
2019-05-03T13:02:44.496Z,39.1
2019-05-03T13:03:44.665Z,39.5
2019-05-03T13:04:40.187Z,39
2019-05-03T13:05:42.468Z,39.1
2019-05-03T13:06:45.387Z,39.1
2019-05-03T13:07:45.505Z,39.2
2019-05-03T13:08:45.366Z,39.2
2019-05-03T13:09:46.116Z,39.1
2019-05-03T13:10:50.701Z,39.1
2019-05-03T13:11:54.798Z,39.3
2019-05-03T13:11:56.317Z,39.3
2019-05-03T13:11:58.942Z,39.3
2019-05-03T13:12:52.439Z,39.3
2019-05-03T13:12:53.146Z,39.3
2019-05-03T13:13:45.220Z,39.3
2019-05-03T13:14:45.403Z,39.3
2019-05-03T13:15:42.278Z,39.3
2019-05-03T13:16:44.631Z,39.3
2019-05-03T13:17:39.757Z,39.3
2019-05-03T13:18:39.361Z,39.2
2019-05-03T13:19:40.390Z,39.1
2019-05-03T13:20:38.727Z,39.1
2019-05-03T13:21:37.555Z,39.1
2019-05-03T13:22:35.066Z,39.1
2019-05-03T13:24:00.910Z,39
2019-05-03T13:24:54.946Z,39.1
2019-05-03T13:25:58.712Z,39
2019-05-03T13:27:00.073Z,39
2019-05-03T13:27:56.796Z,39.1
2019-05-03T13:28:59.790Z,39
2019-05-03T13:29:58.843Z,39
2019-05-03T13:31:01.611Z,38.8
2019-05-03T13:32:06.165Z,38.9
2019-05-03T13:33:09.749Z,38.9
2019-05-03T13:34:09.528Z,39.4
2019-05-03T13:35:06.607Z,39.2
2019-05-03T13:36:10.600Z,38.8
2019-05-03T13:37:05.693Z,39
2019-05-03T13:38:03.799Z,39
2019-05-03T13:39:11.310Z,39
2019-05-03T13:39:14.086Z,39
2019-05-03T13:39:14.712Z,39
2019-05-03T13:40:00.615Z,38.9
2019-05-03T13:41:08.981Z,38.9
2019-05-03T13:42:08.752Z,38.9
2019-05-03T13:43:09.061Z,38.8
2019-05-03T13:44:10.331Z,38.9
2019-05-03T13:45:05.233Z,38.9
2019-05-03T13:46:02.508Z,38.8
2019-05-03T13:47:05.388Z,39.3
2019-05-03T13:48:04.991Z,39.3
2019-05-03T13:49:01.597Z,38.5
2019-05-03T13:50:00.211Z,38.3
2019-05-03T13:51:25.327Z,38.1
2019-05-03T13:52:20.657Z,37.9
2019-05-03T13:53:19.951Z,38
2019-05-03T13:54:20.323Z,37.9
2019-05-03T13:55:19.115Z,37.8
2019-05-03T13:56:20.559Z,38
2019-05-03T13:57:17.380Z,37.8
2019-05-03T13:58:14.871Z,37.8
2019-05-03T13:59:18.916Z,37.7
2019-05-03T13:59:19.910Z,37.7
2019-05-03T14:00:15.237Z,37.5
2019-05-03T14:01:14.540Z,37.5
2019-05-03T14:02:18.927Z,37.4
2019-05-03T14:02:22.503Z,37.4
2019-05-03T14:03:08.294Z,37.4
2019-05-03T14:04:05.821Z,37.2
2019-05-03T14:05:04.940Z,37.1
2019-05-03T14:06:08.679Z,37.2
2019-05-03T14:07:05.574Z,37.2
2019-05-03T14:08:05.305Z,37
2019-05-03T14:09:02.500Z,36.9
2019-05-03T14:10:02.575Z,36.7
2019-05-03T14:10:57.932Z,36.7